sensor_id;sensor_type;location;lat;lon;timestamp;pressure;altitude;pressure_sealevel;temperature;humidity
71151;BME280;59071;42.138;24.768;2023-03-03T00:02:23;100011.94;;;6.04;88.65
71151;BME280;59071;42.138;24.768;2023-03-03T00:04:48;99999.06;;;6.01;87.85
71151;BME280;59071;42.138;24.768;2023-03-03T00:07:14;100005.66;;;5.73;89.76
71151;BME280;59071;42.138;24.768;2023-03-03T00:09:45;100005.03;;;5.62;89.72
71151;BME280;59071;42.138;24.768;2023-03-03T00:12:17;100001.22;;;5.73;90.12
71151;BME280;59071;42.138;24.768;2023-03-03T00:14:44;99987.19;;;5.81;90.14
71151;BME280;59071;42.138;24.768;2023-03-03T00:17:15;99996.09;;;5.72;89.13
71151;BME280;59071;42.138;24.768;2023-03-03T00:19:43;99981.41;;;5.61;90.27
71151;BME280;59071;42.138;24.768;2023-03-03T00:22:34;99978.75;;;5.69;90.29
71151;BME280;59071;42.138;24.768;2023-03-03T00:25:00;99974.00;;;5.81;89.91
71151;BME280;59071;42.138;24.768;2023-03-03T00:27:45;99968.53;;;5.99;89.11
71151;BME280;59071;42.138;24.768;2023-03-03T00:30:43;99962.78;;;5.79;88.86
71151;BME280;59071;42.138;24.768;2023-03-03T00:33:02;99954.66;;;5.97;89.55
71151;BME280;59071;42.138;24.768;2023-03-03T00:35:37;99957.66;;;5.77;89.36
71151;BME280;59071;42.138;24.768;2023-03-03T00:38:11;99953.84;;;5.72;89.48
71151;BME280;59071;42.138;24.768;2023-03-03T00:40:39;99947.25;;;5.67;89.49
71151;BME280;59071;42.138;24.768;2023-03-03T00:43:24;99943.47;;;5.62;90.71
71151;BME280;59071;42.138;24.768;2023-03-03T00:48:20;99942.13;;;5.58;90.24
71151;BME280;59071;42.138;24.768;2023-03-03T00:50:45;99933.88;;;5.69;89.09
71151;BME280;59071;42.138;24.768;2023-03-03T00:55:36;99935.84;;;5.83;88.54
71151;BME280;59071;42.138;24.768;2023-03-03T00:58:02;99930.88;;;6.13;86.99
71151;BME280;59071;42.138;24.768;2023-03-03T01:00:28;99930.53;;;6.08;86.37
71151;BME280;59071;42.138;24.768;2023-03-03T01:02:53;99924.94;;;6.11;86.95
71151;BME280;59071;42.138;24.768;2023-03-03T01:05:18;99918.31;;;6.07;86.91
71151;BME280;59071;42.138;24.768;2023-03-03T01:07:44;99927.09;;;5.99;86.92
71151;BME280;59071;42.138;24.768;2023-03-03T01:10:10;99914.53;;;6.01;86.26
71151;BME280;59071;42.138;24.768;2023-03-03T01:12:35;99914.41;;;5.70;87.64
71151;BME280;59071;42.138;24.768;2023-03-03T01:15:02;99924.78;;;5.80;88.28
71151;BME280;59071;42.138;24.768;2023-03-03T01:17:28;99922.97;;;5.72;89.09
71151;BME280;59071;42.138;24.768;2023-03-03T01:19:53;99923.31;;;5.61;89.12
71151;BME280;59071;42.138;24.768;2023-03-03T01:22:18;99918.53;;;5.81;88.47
71151;BME280;59071;42.138;24.768;2023-03-03T01:24:44;99920.66;;;5.85;87.83
71151;BME280;59071;42.138;24.768;2023-03-03T01:27:09;99925.63;;;5.72;88.40
71151;BME280;59071;42.138;24.768;2023-03-03T01:29:35;99928.63;;;5.53;89.83
71151;BME280;59071;42.138;24.768;2023-03-03T01:32:00;99918.38;;;5.58;89.38
71151;BME280;59071;42.138;24.768;2023-03-03T01:34:25;99917.69;;;5.80;88.23
71151;BME280;59071;42.138;24.768;2023-03-03T01:36:51;99915.56;;;5.59;88.79
71151;BME280;59071;42.138;24.768;2023-03-03T01:39:16;99911.13;;;5.43;89.83
71151;BME280;59071;42.138;24.768;2023-03-03T01:41:41;99896.81;;;5.29;90.30
71151;BME280;59071;42.138;24.768;2023-03-03T01:44:10;99915.44;;;5.53;90.73
71151;BME280;59071;42.138;24.768;2023-03-03T01:46:40;99915.91;;;5.64;90.26
71151;BME280;59071;42.138;24.768;2023-03-03T01:49:09;99916.06;;;5.79;88.15
71151;BME280;59071;42.138;24.768;2023-03-03T01:51:44;99913.09;;;5.66;88.69
71151;BME280;59071;42.138;24.768;2023-03-03T01:54:13;99911.28;;;5.50;89.81
71151;BME280;59071;42.138;24.768;2023-03-03T01:56:40;99914.41;;;5.70;88.74
71151;BME280;59071;42.138;24.768;2023-03-03T01:59:13;99909.09;;;5.78;89.09
71151;BME280;59071;42.138;24.768;2023-03-03T02:01:40;99909.78;;;5.72;87.98
71151;BME280;59071;42.138;24.768;2023-03-03T02:04:06;99900.50;;;5.84;87.33
71151;BME280;59071;42.138;24.768;2023-03-03T02:06:32;99894.09;;;5.79;88.34
71151;BME280;59071;42.138;24.768;2023-03-03T02:09:08;99902.50;;;5.99;87.42
71151;BME280;59071;42.138;24.768;2023-03-03T02:11:35;99895.88;;;6.03;85.77
71151;BME280;59071;42.138;24.768;2023-03-03T02:14:01;99899.19;;;5.88;85.48
71151;BME280;59071;42.138;24.768;2023-03-03T02:16:26;99898.34;;;5.88;85.71
71151;BME280;59071;42.138;24.768;2023-03-03T02:18:52;99899.34;;;5.87;87.06
71151;BME280;59071;42.138;24.768;2023-03-03T02:21:21;99894.28;;;5.77;86.79
71151;BME280;59071;42.138;24.768;2023-03-03T02:28:44;99894.44;;;5.76;87.24
71151;BME280;59071;42.138;24.768;2023-03-03T02:31:12;99890.47;;;5.63;87.94
71151;BME280;59071;42.138;24.768;2023-03-03T02:33:42;99895.28;;;5.68;88.22
71151;BME280;59071;42.138;24.768;2023-03-03T02:36:14;99884.88;;;5.66;88.61
71151;BME280;59071;42.138;24.768;2023-03-03T02:41:20;99883.72;;;5.77;87.79
71151;BME280;59071;42.138;24.768;2023-03-03T02:46:16;99885.56;;;5.60;87.93
71151;BME280;59071;42.138;24.768;2023-03-03T02:48:41;99892.47;;;5.70;86.95
71151;BME280;59071;42.138;24.768;2023-03-03T02:51:07;99899.72;;;5.59;88.30
71151;BME280;59071;42.138;24.768;2023-03-03T02:53:32;99894.25;;;5.69;87.82
71151;BME280;59071;42.138;24.768;2023-03-03T02:55:57;99886.34;;;5.77;87.75
71151;BME280;59071;42.138;24.768;2023-03-03T02:58:23;99892.94;;;5.81;88.18
71151;BME280;59071;42.138;24.768;2023-03-03T03:00:48;99892.94;;;5.81;86.21
71151;BME280;59071;42.138;24.768;2023-03-03T03:03:13;99903.34;;;5.83;86.92
71151;BME280;59071;42.138;24.768;2023-03-03T03:05:39;99897.41;;;5.73;86.33
71151;BME280;59071;42.138;24.768;2023-03-03T03:08:04;99892.28;;;5.79;86.75
71151;BME280;59071;42.138;24.768;2023-03-03T03:10:29;99891.47;;;5.71;87.56
71151;BME280;59071;42.138;24.768;2023-03-03T03:12:54;99882.00;;;5.84;86.53
71151;BME280;59071;42.138;24.768;2023-03-03T03:15:20;99889.34;;;5.66;86.98
71151;BME280;59071;42.138;24.768;2023-03-03T03:17:45;99891.00;;;5.51;90.04
71151;BME280;59071;42.138;24.768;2023-03-03T03:20:10;99885.03;;;5.73;88.58
71151;BME280;59071;42.138;24.768;2023-03-03T03:22:36;99883.53;;;5.79;88.41
71151;BME280;59071;42.138;24.768;2023-03-03T03:25:01;99885.34;;;5.78;88.67
71151;BME280;59071;42.138;24.768;2023-03-03T03:27:26;99884.66;;;5.84;88.45
71151;BME280;59071;42.138;24.768;2023-03-03T03:29:52;99883.00;;;6.00;87.66
71151;BME280;59071;42.138;24.768;2023-03-03T03:32:17;99881.19;;;5.84;86.46
71151;BME280;59071;42.138;24.768;2023-03-03T03:34:42;99873.66;;;5.48;88.99
71151;BME280;59071;42.138;24.768;2023-03-03T03:37:07;99887.03;;;5.63;89.56
71151;BME280;59071;42.138;24.768;2023-03-03T03:39:34;99885.38;;;5.70;89.93
71151;BME280;59071;42.138;24.768;2023-03-03T03:41:59;99882.38;;;5.81;89.42
71151;BME280;59071;42.138;24.768;2023-03-03T03:44:24;99879.53;;;6.07;88.19
71151;BME280;59071;42.138;24.768;2023-03-03T03:46:50;99886.63;;;5.82;88.82
71151;BME280;59071;42.138;24.768;2023-03-03T03:49:15;99879.56;;;5.83;88.50
71151;BME280;59071;42.138;24.768;2023-03-03T03:51:40;99888.81;;;5.79;89.95
71151;BME280;59071;42.138;24.768;2023-03-03T03:54:06;99892.25;;;5.87;88.99
71151;BME280;59071;42.138;24.768;2023-03-03T03:56:31;99888.47;;;5.82;88.95
71151;BME280;59071;42.138;24.768;2023-03-03T03:58:56;99882.38;;;5.81;88.65
71151;BME280;59071;42.138;24.768;2023-03-03T04:01:22;99880.25;;;5.68;89.47
71151;BME280;59071;42.138;24.768;2023-03-03T04:03:47;99877.91;;;5.82;89.32
71151;BME280;59071;42.138;24.768;2023-03-03T04:06:13;99876.31;;;5.56;89.54
71151;BME280;59071;42.138;24.768;2023-03-03T04:08:38;99883.09;;;5.42;90.48
71151;BME280;59071;42.138;24.768;2023-03-03T04:11:04;99882.03;;;5.76;89.89
71151;BME280;59071;42.138;24.768;2023-03-03T04:13:29;99881.38;;;5.74;89.51
71151;BME280;59071;42.138;24.768;2023-03-03T04:15:56;99880.22;;;5.77;89.66
71151;BME280;59071;42.138;24.768;2023-03-03T04:18:21;99873.63;;;5.73;90.30
71151;BME280;59071;42.138;24.768;2023-03-03T04:20:46;99874.09;;;5.84;90.20
71151;BME280;59071;42.138;24.768;2023-03-03T04:23:11;99870.19;;;5.64;91.11
71151;BME280;59071;42.138;24.768;2023-03-03T04:25:37;99871.16;;;5.79;90.01
71151;BME280;59071;42.138;24.768;2023-03-03T04:28:02;99873.09;;;6.02;89.11
71151;BME280;59071;42.138;24.768;2023-03-03T04:30:28;99868.47;;;5.87;89.90
71151;BME280;59071;42.138;24.768;2023-03-03T04:32:53;99873.78;;;5.79;90.60
71151;BME280;59071;42.138;24.768;2023-03-03T04:35:18;99871.63;;;5.75;90.82
71151;BME280;59071;42.138;24.768;2023-03-03T04:37:44;99871.81;;;5.81;91.06
71151;BME280;59071;42.138;24.768;2023-03-03T04:40:09;99868.03;;;6.55;88.91
71151;BME280;59071;42.138;24.768;2023-03-03T04:42:35;99874.19;;;6.47;86.84
71151;BME280;59071;42.138;24.768;2023-03-03T04:45:00;99867.59;;;6.12;87.67
71151;BME280;59071;42.138;24.768;2023-03-03T04:47:25;99872.38;;;6.16;87.70
71151;BME280;59071;42.138;24.768;2023-03-03T04:49:51;99867.00;;;5.85;88.20
71151;BME280;59071;42.138;24.768;2023-03-03T04:52:16;99868.97;;;5.91;88.77
71151;BME280;59071;42.138;24.768;2023-03-03T04:54:42;99877.44;;;6.26;89.62
71151;BME280;59071;42.138;24.768;2023-03-03T04:57:07;99873.47;;;6.61;87.59
71151;BME280;59071;42.138;24.768;2023-03-03T04:59:33;99873.28;;;6.32;87.51
71151;BME280;59071;42.138;24.768;2023-03-03T05:01:59;99871.72;;;6.14;88.94
71151;BME280;59071;42.138;24.768;2023-03-03T05:04:24;99880.13;;;6.18;89.17
71151;BME280;59071;42.138;24.768;2023-03-03T05:06:49;99880.66;;;6.13;89.45
71151;BME280;59071;42.138;24.768;2023-03-03T05:09:15;99876.69;;;6.09;89.94
71151;BME280;59071;42.138;24.768;2023-03-03T05:11:40;99883.59;;;6.18;88.48
71151;BME280;59071;42.138;24.768;2023-03-03T05:14:05;99880.84;;;6.03;89.24
71151;BME280;59071;42.138;24.768;2023-03-03T05:16:32;99884.50;;;6.42;88.17
71151;BME280;59071;42.138;24.768;2023-03-03T05:18:57;99891.16;;;6.30;87.83
71151;BME280;59071;42.138;24.768;2023-03-03T05:21:22;99884.97;;;6.06;88.78
71151;BME280;59071;42.138;24.768;2023-03-03T05:23:48;99883.84;;;6.00;88.44
71151;BME280;59071;42.138;24.768;2023-03-03T05:26:13;99883.34;;;5.97;88.29
71151;BME280;59071;42.138;24.768;2023-03-03T05:28:38;99880.00;;;6.11;88.56
71151;BME280;59071;42.138;24.768;2023-03-03T05:31:04;99879.59;;;6.22;88.04
71151;BME280;59071;42.138;24.768;2023-03-03T05:33:29;99887.16;;;6.34;87.33
71151;BME280;59071;42.138;24.768;2023-03-03T05:35:55;99886.16;;;6.35;86.77
71151;BME280;59071;42.138;24.768;2023-03-03T05:38:20;99883.75;;;6.17;87.15
71151;BME280;59071;42.138;24.768;2023-03-03T05:40:45;99885.19;;;6.28;87.22
71151;BME280;59071;42.138;24.768;2023-03-03T05:43:11;99885.44;;;6.10;87.32
71151;BME280;59071;42.138;24.768;2023-03-03T05:45:36;99885.38;;;6.26;86.44
71151;BME280;59071;42.138;24.768;2023-03-03T05:48:01;99886.22;;;6.26;87.14
71151;BME280;59071;42.138;24.768;2023-03-03T05:50:28;99888.88;;;6.26;86.72
71151;BME280;59071;42.138;24.768;2023-03-03T05:52:53;99890.00;;;6.32;86.31
71151;BME280;59071;42.138;24.768;2023-03-03T05:55:18;99898.41;;;6.28;86.42
71151;BME280;59071;42.138;24.768;2023-03-03T05:57:44;99893.78;;;6.38;85.63
71151;BME280;59071;42.138;24.768;2023-03-03T06:00:10;99890.94;;;6.39;85.63
71151;BME280;59071;42.138;24.768;2023-03-03T06:02:35;99890.13;;;6.39;85.99
71151;BME280;59071;42.138;24.768;2023-03-03T06:05:01;99893.06;;;6.44;84.81
71151;BME280;59071;42.138;24.768;2023-03-03T06:07:26;99892.75;;;6.39;84.42
71151;BME280;59071;42.138;24.768;2023-03-03T06:09:51;99896.38;;;6.46;84.69
71151;BME280;59071;42.138;24.768;2023-03-03T06:12:17;99903.84;;;6.34;85.86
71151;BME280;59071;42.138;24.768;2023-03-03T06:14:42;99899.34;;;6.43;85.62
71151;BME280;59071;42.138;24.768;2023-03-03T06:17:07;99909.94;;;6.74;83.61
71151;BME280;59071;42.138;24.768;2023-03-03T06:19:32;99882.88;;;6.33;84.10
71151;BME280;59071;42.138;24.768;2023-03-03T06:21:58;99907.97;;;6.68;82.18
71151;BME280;59071;42.138;24.768;2023-03-03T06:24:23;99910.03;;;7.65;84.38
71151;BME280;59071;42.138;24.768;2023-03-03T06:26:50;99910.00;;;8.48;82.58
71151;BME280;59071;42.138;24.768;2023-03-03T06:29:16;99910.19;;;9.75;72.58
71151;BME280;59071;42.138;24.768;2023-03-03T06:31:42;99912.75;;;8.25;73.98
71151;BME280;59071;42.138;24.768;2023-03-03T06:34:07;99909.53;;;8.14;75.63
71151;BME280;59071;42.138;24.768;2023-03-03T06:36:32;99915.47;;;7.87;77.96
71151;BME280;59071;42.138;24.768;2023-03-03T06:38:58;99920.47;;;7.67;82.74
71151;BME280;59071;42.138;24.768;2023-03-03T06:41:23;99916.22;;;8.55;83.36
71151;BME280;59071;42.138;24.768;2023-03-03T06:43:48;99912.81;;;8.16;78.31
71151;BME280;59071;42.138;24.768;2023-03-03T06:46:13;99913.38;;;7.29;78.97
71151;BME280;59071;42.138;24.768;2023-03-03T06:48:39;99913.03;;;7.47;79.20
71151;BME280;59071;42.138;24.768;2023-03-03T06:51:09;99915.34;;;7.27;79.38
71151;BME280;59071;42.138;24.768;2023-03-03T06:53:39;99910.69;;;7.06;80.13
71151;BME280;59071;42.138;24.768;2023-03-03T06:56:04;99909.00;;;7.13;80.84
71151;BME280;59071;42.138;24.768;2023-03-03T06:58:32;99915.41;;;7.19;80.13
71151;BME280;59071;42.138;24.768;2023-03-03T07:01:00;99918.72;;;7.59;85.87
71151;BME280;59071;42.138;24.768;2023-03-03T07:03:26;99917.00;;;7.66;81.14
71151;BME280;59071;42.138;24.768;2023-03-03T07:05:53;99913.78;;;8.96;83.85
71151;BME280;59071;42.138;24.768;2023-03-03T07:08:20;99912.69;;;9.27;79.06
71151;BME280;59071;42.138;24.768;2023-03-03T07:10:46;99915.44;;;8.97;71.21
71151;BME280;59071;42.138;24.768;2023-03-03T07:13:22;99909.50;;;8.95;71.07
71151;BME280;59071;42.138;24.768;2023-03-03T07:15:48;99916.69;;;8.80;72.01
71151;BME280;59071;42.138;24.768;2023-03-03T07:20:48;99909.59;;;8.66;71.69
71151;BME280;59071;42.138;24.768;2023-03-03T07:25:38;99910.16;;;8.16;73.46
71151;BME280;59071;42.138;24.768;2023-03-03T07:28:11;99917.22;;;8.09;74.05
71151;BME280;59071;42.138;24.768;2023-03-03T07:30:41;99911.25;;;8.37;72.83
71151;BME280;59071;42.138;24.768;2023-03-03T07:33:07;99916.69;;;8.29;75.80
71151;BME280;59071;42.138;24.768;2023-03-03T07:35:42;99907.97;;;8.05;74.71
71151;BME280;59071;42.138;24.768;2023-03-03T07:38:20;99907.06;;;8.13;72.33
71151;BME280;59071;42.138;24.768;2023-03-03T07:40:57;99914.09;;;7.76;73.93
71151;BME280;59071;42.138;24.768;2023-03-03T07:43:29;99899.88;;;7.54;77.04
71151;BME280;59071;42.138;24.768;2023-03-03T07:48:35;99908.97;;;7.74;74.72
71151;BME280;59071;42.138;24.768;2023-03-03T07:51:03;99902.03;;;7.73;75.31
71151;BME280;59071;42.138;24.768;2023-03-03T07:53:29;99912.00;;;8.31;72.63
71151;BME280;59071;42.138;24.768;2023-03-03T07:55:59;99907.75;;;9.03;69.75
71151;BME280;59071;42.138;24.768;2023-03-03T08:03:43;99905.56;;;8.70;69.16
71151;BME280;59071;42.138;24.768;2023-03-03T08:09:01;99898.53;;;8.62;70.03
71151;BME280;59071;42.138;24.768;2023-03-03T08:11:26;99895.94;;;9.05;67.98
71151;BME280;59071;42.138;24.768;2023-03-03T08:13:52;99880.47;;;8.36;70.32
71151;BME280;59071;42.138;24.768;2023-03-03T08:16:21;99884.50;;;8.02;72.76
71151;BME280;59071;42.138;24.768;2023-03-03T08:18:49;99885.56;;;8.52;71.93
71151;BME280;59071;42.138;24.768;2023-03-03T08:23:41;99880.59;;;7.98;73.53
71151;BME280;59071;42.138;24.768;2023-03-03T08:26:06;99884.75;;;8.07;72.95
71151;BME280;59071;42.138;24.768;2023-03-03T08:28:31;99883.75;;;8.38;71.84
71151;BME280;59071;42.138;24.768;2023-03-03T08:30:57;99871.78;;;8.42;71.23
71151;BME280;59071;42.138;24.768;2023-03-03T08:33:22;99876.44;;;8.25;72.15
71151;BME280;59071;42.138;24.768;2023-03-03T08:35:48;99878.56;;;8.00;74.32
71151;BME280;59071;42.138;24.768;2023-03-03T08:38:14;99865.38;;;8.51;72.72
71151;BME280;59071;42.138;24.768;2023-03-03T08:40:40;99860.28;;;9.14;69.70
71151;BME280;59071;42.138;24.768;2023-03-03T08:43:05;99865.53;;;8.86;70.87
71151;BME280;59071;42.138;24.768;2023-03-03T08:45:31;99863.34;;;8.53;72.67
71151;BME280;59071;42.138;24.768;2023-03-03T08:47:56;99855.22;;;8.76;71.50
71151;BME280;59071;42.138;24.768;2023-03-03T08:50:23;99856.69;;;9.50;68.23
71151;BME280;59071;42.138;24.768;2023-03-03T08:52:49;99855.91;;;8.85;69.01
71151;BME280;59071;42.138;24.768;2023-03-03T08:55:14;99865.09;;;8.16;72.53
71151;BME280;59071;42.138;24.768;2023-03-03T08:57:40;99867.97;;;8.15;72.77
71151;BME280;59071;42.138;24.768;2023-03-03T09:00:06;99861.59;;;9.04;70.52
71151;BME280;59071;42.138;24.768;2023-03-03T09:02:32;99862.25;;;8.33;72.03
71151;BME280;59071;42.138;24.768;2023-03-03T09:04:57;99865.09;;;8.46;72.44
71151;BME280;59071;42.138;24.768;2023-03-03T09:07:22;99863.53;;;8.37;73.75
71151;BME280;59071;42.138;24.768;2023-03-03T09:09:47;99863.50;;;8.67;73.24
71151;BME280;59071;42.138;24.768;2023-03-03T09:12:17;99856.72;;;8.64;72.13
71151;BME280;59071;42.138;24.768;2023-03-03T09:14:43;99864.19;;;8.75;72.86
71151;BME280;59071;42.138;24.768;2023-03-03T09:22:47;99855.34;;;8.90;72.78
71151;BME280;59071;42.138;24.768;2023-03-03T09:27:48;99854.50;;;8.46;73.70
71151;BME280;59071;42.138;24.768;2023-03-03T09:32:51;99846.59;;;8.53;72.89
71151;BME280;59071;42.138;24.768;2023-03-03T09:35:35;99844.66;;;8.61;72.12
71151;BME280;59071;42.138;24.768;2023-03-03T09:38:09;99830.41;;;8.63;72.14
71151;BME280;59071;42.138;24.768;2023-03-03T09:46:12;99841.31;;;9.46;71.31
71151;BME280;59071;42.138;24.768;2023-03-03T09:56:52;99829.25;;;9.43;69.26
71151;BME280;59071;42.138;24.768;2023-03-03T10:01:53;99827.69;;;9.27;68.70
71151;BME280;59071;42.138;24.768;2023-03-03T10:06:48;99829.81;;;8.67;69.48
71151;BME280;59071;42.138;24.768;2023-03-03T10:22:05;99819.44;;;9.44;67.45
71151;BME280;59071;42.138;24.768;2023-03-03T10:24:39;99823.22;;;9.63;66.89
71151;BME280;59071;42.138;24.768;2023-03-03T10:29:57;99820.44;;;9.14;71.39
71151;BME280;59071;42.138;24.768;2023-03-03T10:32:38;99816.59;;;9.45;70.61
71151;BME280;59071;42.138;24.768;2023-03-03T10:35:10;99809.94;;;9.63;72.01
71151;BME280;59071;42.138;24.768;2023-03-03T10:47:54;99806.72;;;9.67;69.89
71151;BME280;59071;42.138;24.768;2023-03-03T10:50:32;99800.50;;;9.25;71.41
71151;BME280;59071;42.138;24.768;2023-03-03T11:08:42;99770.88;;;9.56;69.81
71151;BME280;59071;42.138;24.768;2023-03-03T11:11:32;99775.88;;;9.38;69.90
71151;BME280;59071;42.138;24.768;2023-03-03T11:14:32;99765.09;;;9.88;69.51
71151;BME280;59071;42.138;24.768;2023-03-03T11:16:59;99761.44;;;9.95;68.88
71151;BME280;59071;42.138;24.768;2023-03-03T11:27:14;99759.41;;;9.97;68.87
71151;BME280;59071;42.138;24.768;2023-03-03T11:29:57;99760.56;;;9.82;68.84
71151;BME280;59071;42.138;24.768;2023-03-03T11:32:37;99759.53;;;9.76;69.91
71151;BME280;59071;42.138;24.768;2023-03-03T11:35:21;99754.44;;;9.88;68.82
71151;BME280;59071;42.138;24.768;2023-03-03T11:37:58;99751.97;;;10.41;66.55
71151;BME280;59071;42.138;24.768;2023-03-03T11:45:34;99746.25;;;10.44;66.67
71151;BME280;59071;42.138;24.768;2023-03-03T11:50:50;99736.03;;;10.34;66.69
71151;BME280;59071;42.138;24.768;2023-03-03T11:55:51;99726.44;;;10.53;65.82
71151;BME280;59071;42.138;24.768;2023-03-03T11:58:19;99721.72;;;10.62;64.08
71151;BME280;59071;42.138;24.768;2023-03-03T12:01:31;99717.41;;;10.34;65.88
71151;BME280;59071;42.138;24.768;2023-03-03T12:06:32;99725.22;;;10.89;64.53
71151;BME280;59071;42.138;24.768;2023-03-03T12:12:07;99718.91;;;9.95;66.89
71151;BME280;59071;42.138;24.768;2023-03-03T12:27:49;99704.78;;;9.88;67.18
71151;BME280;59071;42.138;24.768;2023-03-03T12:30:19;99698.25;;;9.97;67.48
71151;BME280;59071;42.138;24.768;2023-03-03T12:35:33;99702.56;;;9.98;66.49
71151;BME280;59071;42.138;24.768;2023-03-03T12:40:54;99702.41;;;9.58;67.91
71151;BME280;59071;42.138;24.768;2023-03-03T12:48:42;99708.28;;;9.47;67.65
71151;BME280;59071;42.138;24.768;2023-03-03T12:53:57;99704.81;;;9.47;68.10
71151;BME280;59071;42.138;24.768;2023-03-03T12:59:10;99700.63;;;9.66;68.23
71151;BME280;59071;42.138;24.768;2023-03-03T13:06:57;99692.78;;;9.57;67.56
71151;BME280;59071;42.138;24.768;2023-03-03T13:09:32;99693.91;;;9.76;66.80
71151;BME280;59071;42.138;24.768;2023-03-03T13:17:16;99688.47;;;9.50;67.12
71151;BME280;59071;42.138;24.768;2023-03-03T13:27:22;99698.63;;;9.81;67.46
71151;BME280;59071;42.138;24.768;2023-03-03T13:32:16;99692.97;;;9.49;69.63
71151;BME280;59071;42.138;24.768;2023-03-03T13:44:55;99681.25;;;9.30;68.93
71151;BME280;59071;42.138;24.768;2023-03-03T13:47:42;99683.41;;;8.85;70.36
71151;BME280;59071;42.138;24.768;2023-03-03T13:50:18;99683.81;;;9.10;69.88
71151;BME280;59071;42.138;24.768;2023-03-03T13:57:57;99684.38;;;9.41;69.32
71151;BME280;59071;42.138;24.768;2023-03-03T14:00:35;99685.19;;;9.41;68.73
71151;BME280;59071;42.138;24.768;2023-03-03T14:05:48;99673.47;;;9.29;69.79
71151;BME280;59071;42.138;24.768;2023-03-03T14:13:22;99673.56;;;9.49;68.58
71151;BME280;59071;42.138;24.768;2023-03-03T14:18:22;99663.28;;;9.32;68.28
71151;BME280;59071;42.138;24.768;2023-03-03T14:20:52;99673.75;;;9.47;68.08
71151;BME280;59071;42.138;24.768;2023-03-03T14:23:24;99666.41;;;9.43;68.39
71151;BME280;59071;42.138;24.768;2023-03-03T14:28:16;99670.09;;;9.48;67.74
71151;BME280;59071;42.138;24.768;2023-03-03T14:30:43;99667.03;;;9.45;67.99
71151;BME280;59071;42.138;24.768;2023-03-03T14:38:03;99666.97;;;9.38;67.50
71151;BME280;59071;42.138;24.768;2023-03-03T14:40:30;99660.81;;;9.31;67.51
71151;BME280;59071;42.138;24.768;2023-03-03T14:42:58;99653.78;;;9.58;66.43
71151;BME280;59071;42.138;24.768;2023-03-03T14:47:55;99660.59;;;9.26;67.89
71151;BME280;59071;42.138;24.768;2023-03-03T14:53:58;99656.41;;;9.45;66.56
71151;BME280;59071;42.138;24.768;2023-03-03T14:55:53;99647.81;;;9.49;66.80
71151;BME280;59071;42.138;24.768;2023-03-03T15:00:49;99649.50;;;9.15;68.27
71151;BME280;59071;42.138;24.768;2023-03-03T15:03:22;99655.16;;;8.99;69.78
71151;BME280;59071;42.138;24.768;2023-03-03T15:05:54;99648.97;;;8.64;71.20
71151;BME280;59071;42.138;24.768;2023-03-03T15:08:32;99649.50;;;9.15;69.44
71151;BME280;59071;42.138;24.768;2023-03-03T15:11:10;99657.88;;;9.12;69.00
71151;BME280;59071;42.138;24.768;2023-03-03T15:13:36;99656.09;;;9.26;67.68
71151;BME280;59071;42.138;24.768;2023-03-03T15:16:15;99658.31;;;9.16;68.44
71151;BME280;59071;42.138;24.768;2023-03-03T15:19:17;99654.28;;;8.92;70.21
71151;BME280;59071;42.138;24.768;2023-03-03T15:21:32;99659.41;;;9.35;67.17
71151;BME280;59071;42.138;24.768;2023-03-03T15:31:50;99667.09;;;9.23;67.73
71151;BME280;59071;42.138;24.768;2023-03-03T15:42:17;99666.94;;;8.96;68.43
71151;BME280;59071;42.138;24.768;2023-03-03T15:44:57;99669.56;;;8.90;69.36
71151;BME280;59071;42.138;24.768;2023-03-03T16:05:14;99682.16;;;8.81;69.54
71151;BME280;59071;42.138;24.768;2023-03-03T16:12:59;99691.00;;;8.88;69.08
71151;BME280;59071;42.138;24.768;2023-03-03T16:18:02;99709.50;;;8.53;70.36
71151;BME280;59071;42.138;24.768;2023-03-03T16:28:29;99716.13;;;8.43;72.54
71151;BME280;59071;42.138;24.768;2023-03-03T16:33:31;99711.88;;;8.70;71.12
71151;BME280;59071;42.138;24.768;2023-03-03T16:36:10;99712.66;;;8.64;71.17
71151;BME280;59071;42.138;24.768;2023-03-03T16:38:38;99706.22;;;8.51;71.12
71151;BME280;59071;42.138;24.768;2023-03-03T16:46:45;99711.75;;;8.56;71.89
71151;BME280;59071;42.138;24.768;2023-03-03T16:54:54;99729.59;;;8.91;70.73
71151;BME280;59071;42.138;24.768;2023-03-03T17:05:05;99730.88;;;8.73;71.18
71151;BME280;59071;42.138;24.768;2023-03-03T17:18:12;99732.34;;;8.54;71.13
71151;BME280;59071;42.138;24.768;2023-03-03T17:26:06;99744.19;;;8.15;73.15
71151;BME280;59071;42.138;24.768;2023-03-03T17:36:15;99763.50;;;8.46;72.83
71151;BME280;59071;42.138;24.768;2023-03-03T17:44:01;99775.19;;;8.15;74.28
71151;BME280;59071;42.138;24.768;2023-03-03T17:46:32;99778.53;;;8.23;74.57
71151;BME280;59071;42.138;24.768;2023-03-03T17:52:07;99778.03;;;7.98;75.72
71151;BME280;59071;42.138;24.768;2023-03-03T18:17:34;99792.56;;;7.88;77.44
71151;BME280;59071;42.138;24.768;2023-03-03T18:22:57;99800.34;;;7.74;77.75
71151;BME280;59071;42.138;24.768;2023-03-03T18:28:19;99803.84;;;7.60;78.32
71151;BME280;59071;42.138;24.768;2023-03-03T18:33:14;99803.09;;;7.66;78.11
71151;BME280;59071;42.138;24.768;2023-03-03T18:35:44;99799.34;;;7.60;78.74
71151;BME280;59071;42.138;24.768;2023-03-03T18:46:10;99811.97;;;7.58;79.17
71151;BME280;59071;42.138;24.768;2023-03-03T18:49:18;99818.66;;;7.69;78.65
71151;BME280;59071;42.138;24.768;2023-03-03T19:02:16;99814.56;;;7.29;80.95
71151;BME280;59071;42.138;24.768;2023-03-03T19:04:47;99808.00;;;7.24;81.51
71151;BME280;59071;42.138;24.768;2023-03-03T19:15:06;99812.00;;;6.82;82.34
71151;BME280;59071;42.138;24.768;2023-03-03T19:20:13;99821.66;;;7.13;80.69
71151;BME280;59071;42.138;24.768;2023-03-03T19:22:46;99814.81;;;6.81;82.35
71151;BME280;59071;42.138;24.768;2023-03-03T19:35:50;99817.34;;;6.97;81.65
71151;BME280;59071;42.138;24.768;2023-03-03T19:51:06;99834.34;;;6.80;81.93
71151;BME280;59071;42.138;24.768;2023-03-03T19:53:43;99832.88;;;6.77;82.77